Time;durP1;ratioP1;P1;durP2;ratioP2;P2;SDS_P1;SDS_P2;PMS_P1;PMS_P2;Temp;Humidity;BMP_temperature;BMP_pressure;BME280_temperature;BME280_humidity;BME280_pressure;Samples;Min_cycle;Max_cycle;Signal;HPM_P1;HPM_P2
2022/12/29 00:01:23;;;;;;;6.35;3.05;;;;;;;1.27;68.61;92877.84;2056971;69;20597;-75
2022/12/29 00:03:49;;;;;;;4.70;2.40;;;;;;;1.33;67.95;92877.69;2057423;69;20610;-74
2022/12/29 00:06:14;;;;;;;3.63;2.15;;;;;;;1.23;69.16;92882.25;2056793;69;20157;-72
2022/12/29 00:08:40;;;;;;;6.10;3.30;;;;;;;1.30;68.04;92873.22;2057040;69;20208;-74
2022/12/29 00:11:12;;;;;;;7.60;3.90;;;;;;;0.89;70.14;92869.28;2053637;69;20169;-73
2022/12/29 00:16:22;;;;;;;7.22;3.90;;;;;;;0.95;69.08;92883.72;2057615;69;20734;-74
2022/12/29 00:18:49;;;;;;;8.48;3.78;;;;;;;0.94;69.89;92887.06;2057499;69;20133;-75
2022/12/29 00:35:07;;;;;;;5.15;2.80;;;;;;;1.22;68.68;92875.22;2054529;69;20584;-74
2022/12/29 00:35:26;;;;;;;6.15;3.15;;;;;;;1.13;68.10;92862.59;2057585;69;20130;-74
2022/12/29 00:46:07;;;;;;;6.03;2.47;;;;;;;1.24;69.04;92862.31;2056081;69;20169;-74
2022/12/29 00:51:17;;;;;;;3.67;2.08;;;;;;;1.17;69.68;92863.00;2057606;69;20154;-76
2022/12/29 00:53:43;;;;;;;4.72;2.20;;;;;;;1.24;69.84;92867.84;2056814;69;20162;-76
2022/12/29 00:56:08;;;;;;;3.80;2.08;;;;;;;1.26;69.03;92870.06;2057378;69;20192;-74
2022/12/29 00:58:34;;;;;;;3.85;1.63;;;;;;;1.33;69.17;92876.94;2057445;69;20158;-74
2022/12/29 01:01:04;;;;;;;7.43;3.00;;;;;;;1.21;68.90;92882.81;2056532;69;20236;-75
2022/12/29 01:03:30;;;;;;;6.25;3.10;;;;;;;1.14;68.91;92886.25;2056170;69;20244;-74
2022/12/29 01:05:56;;;;;;;4.93;2.78;;;;;;;1.13;69.36;92884.03;2056887;69;20526;-74
2022/12/29 01:08:21;;;;;;;7.53;3.70;;;;;;;0.89;69.73;92885.19;2056782;69;20192;-74
2022/12/29 01:11:01;;;;;;;4.93;2.90;;;;;;;0.84;69.13;92881.25;2056090;69;20630;-75
2022/12/29 01:13:27;;;;;;;5.85;3.30;;;;;;;1.02;69.00;92888.59;2057334;69;20153;-75
2022/12/29 01:15:53;;;;;;;5.72;3.08;;;;;;;0.92;68.77;92873.75;2056023;69;20598;-74
2022/12/29 01:18:19;;;;;;;6.53;3.13;;;;;;;1.03;69.00;92881.03;2053940;69;20185;-75
2022/12/29 01:20:45;;;;;;;6.13;3.03;;;;;;;0.76;69.22;92886.75;2056612;69;20177;-74
2022/12/29 01:23:10;;;;;;;5.10;2.92;;;;;;;0.83;70.44;92879.06;2054029;69;20276;-75
2022/12/29 01:25:36;;;;;;;4.63;2.70;;;;;;;0.97;70.02;92892.25;2056651;69;20165;-75
2022/12/29 01:28:02;;;;;;;5.05;2.90;;;;;;;1.09;68.89;92889.19;2056710;69;20200;-76
2022/12/29 01:30:27;;;;;;;7.72;3.53;;;;;;;1.21;68.66;92898.69;2056862;69;20145;-75
2022/12/29 01:32:53;;;;;;;4.75;2.85;;;;;;;1.27;68.27;92908.34;2057880;69;20543;-74
2022/12/29 01:35:19;;;;;;;6.07;3.08;;;;;;;1.00;69.22;92918.16;2056401;69;20234;-74
2022/12/29 01:37:44;;;;;;;5.47;3.15;;;;;;;1.09;68.87;92914.88;2057591;69;20602;-74
2022/12/29 01:40:10;;;;;;;4.07;2.45;;;;;;;1.12;68.63;92905.47;2057286;69;20153;-74
2022/12/29 01:42:36;;;;;;;4.10;2.40;;;;;;;1.18;68.02;92886.66;2057150;69;20721;-74
2022/12/29 01:45:08;;;;;;;3.58;2.38;;;;;;;1.16;68.38;92894.78;2057099;69;20223;-74
2022/12/29 01:47:40;;;;;;;7.53;3.13;;;;;;;1.26;67.65;92895.78;2057918;69;20176;-74
2022/12/29 01:50:20;;;;;;;6.65;3.22;;;;;;;1.19;68.00;92902.03;2056944;69;20931;-75
2022/12/29 01:52:56;;;;;;;6.22;2.85;;;;;;;1.09;68.40;92894.72;2055000;69;20265;-72
2022/12/29 01:55:22;;;;;;;6.25;2.40;;;;;;;1.14;68.51;92897.34;2059474;69;20192;-73
2022/12/29 01:57:57;;;;;;;4.50;2.13;;;;;;;1.10;68.99;92896.22;2057651;69;20610;-74
2022/12/29 02:00:23;;;;;;;4.43;2.33;;;;;;;1.14;68.39;92893.84;2053413;69;20641;-74
2022/12/29 02:02:52;;;;;;;6.63;2.70;;;;;;;1.04;68.50;92890.09;2054359;69;20233;-75
2022/12/29 02:05:48;;;;;;;5.85;2.70;;;;;;;1.04;68.19;92890.09;2054529;69;20232;-74
2022/12/29 02:08:14;;;;;;;6.43;3.20;;;;;;;0.94;68.32;92895.38;2055765;69;20609;-73
2022/12/29 02:10:44;;;;;;;6.03;3.28;;;;;;;0.88;69.31;92889.97;2057024;69;20444;-73
2022/12/29 02:13:10;;;;;;;3.78;2.10;;;;;;;0.84;69.95;92888.84;2058173;69;20150;-75
2022/12/29 02:16:02;;;;;;;4.00;1.83;;;;;;;0.95;68.32;92874.69;2054782;69;20451;-73
2022/12/29 02:18:40;;;;;;;;;;;;;;;1.15;68.22;92876.66;2057937;69;20463;-73
2022/12/29 02:21:31;;;;;;;4.50;1.85;;;;;;;1.24;68.26;92873.41;2057427;69;20072;-72
2022/12/29 02:24:17;;;;;;;4.95;1.95;;;;;;;1.09;68.82;92883.63;2055530;69;20260;-73
2022/12/29 02:27:05;;;;;;;4.97;2.63;;;;;;;1.13;67.79;92884.78;2058017;69;20149;-73
2022/12/29 02:29:51;;;;;;;3.60;1.90;;;;;;;1.14;68.69;92883.47;2054056;69;20142;-74
2022/12/29 02:32:49;;;;;;;5.40;2.30;;;;;;;1.16;68.14;92874.63;2051416;69;20154;-74
2022/12/29 02:35:39;;;;;;;3.30;2.10;;;;;;;1.11;69.08;92884.59;2057737;69;20189;-74
2022/12/29 02:38:35;;;;;;;3.75;2.40;;;;;;;1.26;67.54;92883.94;2057508;69;20173;-74
2022/12/29 02:41:07;;;;;;;4.20;2.03;;;;;;;1.24;68.15;92878.94;2056175;69;20380;-74
2022/12/29 02:43:51;;;;;;;4.27;2.30;;;;;;;1.12;68.43;92888.84;2060938;69;20722;-72
2022/12/29 02:46:40;;;;;;;5.15;2.50;;;;;;;0.99;69.21;92877.84;2059693;69;20626;-74
2022/12/29 02:49:15;;;;;;;3.88;2.38;;;;;;;0.93;68.88;92872.47;2058133;69;20165;-75
2022/12/29 02:51:52;;;;;;;4.43;2.42;;;;;;;0.95;69.34;92874.69;2058207;69;20212;-75
2022/12/29 02:57:09;;;;;;;2.67;1.98;;;;;;;1.10;68.41;92869.25;2056773;69;20158;-74
2022/12/29 02:59:36;;;;;;;3.58;2.08;;;;;;;1.13;68.65;92872.94;2057192;69;20149;-76
2022/12/29 03:02:16;;;;;;;2.85;1.75;;;;;;;1.16;68.58;92875.38;2057747;69;20264;-73
2022/12/29 03:05:19;;;;;;;3.25;2.17;;;;;;;1.09;68.88;92873.28;2057041;69;20185;-74
2022/12/29 03:08:15;;;;;;;4.60;1.90;;;;;;;1.12;68.90;92874.25;2057712;69;20178;-74
2022/12/29 03:10:50;;;;;;;3.95;2.00;;;;;;;1.02;69.26;92869.19;2056642;69;20742;-74
2022/12/29 03:16:21;;;;;;;4.47;2.38;;;;;;;1.05;67.06;92869.38;2056943;69;20157;-75
2022/12/29 03:19:07;;;;;;;4.35;2.40;;;;;;;1.08;66.79;92865.53;2056816;69;20584;-74
2022/12/29 03:24:29;;;;;;;3.92;2.30;;;;;;;1.18;66.71;92853.38;2055832;69;20273;-73
2022/12/29 03:26:59;;;;;;;4.20;2.30;;;;;;;1.23;66.62;92860.78;2057581;69;20177;-74
2022/12/29 03:29:29;;;;;;;4.50;2.35;;;;;;;1.29;66.52;92871.75;2055332;69;20149;-74
2022/12/29 03:31:56;;;;;;;3.20;2.17;;;;;;;1.23;67.18;92863.56;2054302;69;20157;-74
2022/12/29 03:34:24;;;;;;;2.95;1.83;;;;;;;1.28;66.84;92853.59;2057482;69;20180;-73
2022/12/29 03:36:59;;;;;;;4.03;1.90;;;;;;;1.26;67.71;92858.97;2056428;69;20158;-74
2022/12/29 03:39:25;;;;;;;4.55;2.15;;;;;;;1.36;67.38;92864.75;2056421;69;20299;-74
2022/12/29 03:41:58;;;;;;;4.32;1.85;;;;;;;1.30;68.01;92856.59;2056836;69;20134;-75
2022/12/29 03:44:36;;;;;;;3.10;2.10;;;;;;;1.24;68.10;92851.22;2056796;69;20184;-76
2022/12/29 03:47:03;;;;;;;3.53;2.05;;;;;;;1.21;67.35;92851.56;2057040;69;20169;-74
2022/12/29 03:49:29;;;;;;;4.80;2.30;;;;;;;1.18;67.67;92850.59;2057087;69;20145;-74
2022/12/29 03:51:56;;;;;;;6.32;2.38;;;;;;;1.21;67.35;92846.75;2056496;69;20149;-75
2022/12/29 03:54:24;;;;;;;3.35;2.00;;;;;;;1.16;67.56;92855.22;2055200;69;20156;-74
2022/12/29 03:56:49;;;;;;;2.10;1.70;;;;;;;1.13;68.36;92851.50;2056920;69;20183;-74
2022/12/29 03:59:20;;;;;;;3.63;1.60;;;;;;;1.13;67.75;92859.81;2057031;69;20158;-74
2022/12/29 04:01:46;;;;;;;3.25;1.80;;;;;;;1.04;68.03;92854.03;2056918;69;20169;-74
2022/12/29 04:04:13;;;;;;;4.05;1.90;;;;;;;1.19;67.46;92862.44;2055451;69;20255;-75
2022/12/29 04:06:40;;;;;;;4.22;1.70;;;;;;;1.06;67.86;92862.56;2056309;69;20151;-74
2022/12/29 04:09:09;;;;;;;4.10;2.13;;;;;;;1.04;67.29;92859.59;2056561;69;20349;-73
2022/12/29 04:11:40;;;;;;;;;;;;;;;1.05;68.26;92856.25;2057204;69;20558;-74
2022/12/29 04:14:06;;;;;;;4.57;2.13;;;;;;;0.97;67.78;92858.25;2056962;69;20052;-74
2022/12/29 04:16:35;;;;;;;3.70;1.80;;;;;;;1.01;67.69;92867.72;2054514;69;20150;-74
2022/12/29 04:19:03;;;;;;;3.42;2.00;;;;;;;0.91;68.09;92860.41;2050420;70;20207;-74
2022/12/29 04:21:28;;;;;;;4.53;1.75;;;;;;;0.73;69.22;92868.44;2053270;69;20630;-75
2022/12/29 04:23:54;;;;;;;3.95;2.28;;;;;;;0.97;68.08;92864.53;2056798;69;20146;-74
2022/12/29 04:26:21;;;;;;;4.55;2.33;;;;;;;0.89;67.35;92874.09;2056270;69;20552;-74
2022/12/29 04:28:59;;;;;;;4.40;2.50;;;;;;;1.02;66.83;92874.00;2056641;69;20153;-75
2022/12/29 04:31:41;;;;;;;3.42;2.25;;;;;;;1.00;67.58;92882.09;2059578;69;20169;-72
2022/12/29 04:34:07;;;;;;;3.58;2.20;;;;;;;1.06;68.28;92885.50;2056947;69;20149;-72
2022/12/29 04:36:33;;;;;;;3.22;2.05;;;;;;;1.21;67.45;92879.28;2056777;69;20140;-73
2022/12/29 04:38:59;;;;;;;5.55;2.65;;;;;;;1.11;67.99;92870.72;2055631;69;20141;-72
2022/12/29 04:41:27;;;;;;;3.95;2.42;;;;;;;1.20;67.57;92875.78;2056723;69;20154;-73
2022/12/29 04:43:53;;;;;;;6.43;2.38;;;;;;;1.16;68.08;92872.59;2056817;69;20516;-74
2022/12/29 04:46:41;;;;;;;5.72;3.10;;;;;;;1.13;68.65;92875.72;2055948;69;20201;-72
2022/12/29 04:49:11;;;;;;;6.03;2.60;;;;;;;1.11;68.26;92873.50;2057394;69;20654;-72
2022/12/29 04:51:59;;;;;;;3.63;2.00;;;;;;;1.21;68.68;92868.19;2057002;69;20150;-73
2022/12/29 04:54:26;;;;;;;2.42;1.90;;;;;;;1.29;68.30;92866.22;2055392;69;20239;-73
2022/12/29 04:57:05;;;;;;;3.30;2.00;;;;;;;1.24;67.92;92867.13;2056892;69;20168;-73
2022/12/29 04:59:32;;;;;;;3.92;2.17;;;;;;;1.23;68.74;92871.16;2056595;69;20518;-72
2022/12/29 05:01:58;;;;;;;5.85;2.08;;;;;;;1.29;67.58;92855.13;2056494;69;20301;-73
2022/12/29 05:04:24;;;;;;;3.92;2.08;;;;;;;1.46;66.89;92851.84;2056678;69;20141;-73
2022/12/29 05:06:50;;;;;;;3.75;1.95;;;;;;;1.49;67.48;92848.72;2055849;69;20160;-73
2022/12/29 05:09:17;;;;;;;3.75;2.20;;;;;;;1.50;67.93;92847.44;2056474;69;20193;-73
2022/12/29 05:11:43;;;;;;;3.50;2.00;;;;;;;1.44;68.75;92851.66;2057285;69;20608;-74
2022/12/29 05:14:09;;;;;;;3.50;2.10;;;;;;;1.50;66.95;92866.13;2055947;69;20165;-72
2022/12/29 05:16:36;;;;;;;3.47;2.03;;;;;;;1.51;66.82;92871.13;2054419;69;20150;-72
2022/12/29 05:19:01;;;;;;;3.38;2.15;;;;;;;1.48;67.34;92865.94;2056689;69;20160;-73
2022/12/29 05:21:29;;;;;;;2.85;2.00;;;;;;;1.51;65.90;92868.34;2054460;69;20303;-73
2022/12/29 05:23:55;;;;;;;4.85;2.22;;;;;;;1.41;65.71;92861.06;2054065;70;20379;-73
2022/12/29 05:26:23;;;;;;;3.85;2.13;;;;;;;1.71;65.87;92864.00;2055305;69;20176;-73
2022/12/29 05:29:09;;;;;;;5.35;2.58;;;;;;;1.65;66.02;92868.19;2055342;69;20208;-74
2022/12/29 05:31:35;;;;;;;4.65;2.70;;;;;;;1.62;65.50;92864.50;2056489;69;20145;-72
2022/12/29 05:34:02;;;;;;;5.30;2.30;;;;;;;1.59;64.89;92864.84;2053091;69;20177;-72
2022/12/29 05:36:29;;;;;;;4.63;2.45;;;;;;;1.47;65.26;92859.66;2056673;69;20154;-72
2022/12/29 05:38:58;;;;;;;4.78;2.78;;;;;;;1.47;65.23;92859.66;2056454;69;20142;-77
2022/12/29 05:41:24;;;;;;;6.03;3.40;;;;;;;1.69;65.20;92851.94;2056813;69;20176;-74
2022/12/29 05:43:59;;;;;;;5.57;3.05;;;;;;;1.62;65.17;92866.53;2057530;69;20207;-73
2022/12/29 05:46:43;;;;;;;3.97;2.17;;;;;;;1.52;67.86;92858.75;2055763;69;20168;-73
2022/12/29 05:49:28;;;;;;;2.60;1.70;;;;;;;1.52;67.64;92855.22;2056892;69;20257;-73
2022/12/29 05:52:07;;;;;;;3.60;1.50;;;;;;;1.51;67.59;92848.94;2057152;69;20173;-74
2022/12/29 05:54:33;;;;;;;3.70;1.88;;;;;;;1.51;68.34;92857.25;2056476;69;20152;-74
2022/12/29 05:56:59;;;;;;;2.80;1.77;;;;;;;1.63;67.14;92854.88;2056813;69;20161;-73
2022/12/29 05:59:26;;;;;;;3.28;1.85;;;;;;;1.64;67.29;92861.91;2056253;69;20149;-73
2022/12/29 06:01:53;;;;;;;2.45;1.60;;;;;;;1.62;67.65;92867.28;2056767;69;20154;-73
2022/12/29 06:04:19;;;;;;;2.85;1.80;;;;;;;1.48;67.26;92861.13;2054093;69;20137;-73
2022/12/29 06:06:44;;;;;;;5.15;2.25;;;;;;;1.53;66.48;92867.81;2057358;69;20618;-72
2022/12/29 06:09:18;;;;;;;3.92;2.50;;;;;;;1.59;65.77;92879.47;2055900;69;20157;-72
2022/12/29 06:11:44;;;;;;;3.55;2.17;;;;;;;1.57;66.33;92876.53;2057433;69;20154;-74
2022/12/29 06:14:09;;;;;;;2.72;1.75;;;;;;;1.63;67.01;92865.25;2053100;69;20152;-76
2022/12/29 06:16:36;;;;;;;4.28;2.30;;;;;;;1.50;67.50;92877.22;2056951;69;20166;-73
2022/12/29 06:19:04;;;;;;;4.30;2.50;;;;;;;1.57;66.64;92868.19;2057351;69;20638;-72
2022/12/29 06:21:30;;;;;;;5.15;3.03;;;;;;;1.26;65.92;92875.63;2057207;69;20233;-73
2022/12/29 06:23:57;;;;;;;5.75;3.38;;;;;;;1.53;65.39;92879.63;2057153;69;20165;-75
2022/12/29 06:26:24;;;;;;;5.90;3.15;;;;;;;1.57;65.46;92873.75;2056923;69;20157;-75
2022/12/29 06:28:50;;;;;;;4.68;2.78;;;;;;;1.44;66.11;92874.59;2056250;69;20261;-74
2022/12/29 06:31:15;;;;;;;5.63;2.55;;;;;;;1.55;66.15;92865.22;2057777;69;20145;-75
2022/12/29 06:33:41;;;;;;;3.53;2.40;;;;;;;1.34;66.78;92861.78;2057289;69;20150;-74
2022/12/29 06:36:07;;;;;;;4.45;2.60;;;;;;;1.45;66.21;92864.25;2058194;69;20170;-73
2022/12/29 06:38:34;;;;;;;4.70;2.83;;;;;;;1.38;65.92;92860.16;2054762;69;20253;-73
2022/12/29 06:41:00;;;;;;;4.70;2.80;;;;;;;1.54;65.50;92858.19;2053601;70;20506;-74
2022/12/29 06:43:37;;;;;;;4.68;2.20;;;;;;;1.57;66.12;92861.91;2056858;69;20582;-73
2022/12/29 06:46:09;;;;;;;5.70;2.60;;;;;;;1.39;66.52;92866.44;2058027;69;20585;-74
2022/12/29 06:48:34;;;;;;;11.63;4.05;;;;;;;1.41;66.78;92864.59;2057118;69;20153;-73
2022/12/29 06:51:01;;;;;;;6.90;3.58;;;;;;;1.42;66.20;92860.53;2054521;69;20225;-73
2022/12/29 06:53:28;;;;;;;10.43;4.95;;;;;;;1.48;66.76;92850.03;2050846;69;20614;-73
2022/12/29 06:55:53;;;;;;;6.82;2.58;;;;;;;1.30;65.81;92853.81;2055329;69;20146;-74
2022/12/29 06:58:19;;;;;;;9.48;4.55;;;;;;;1.42;65.66;92841.13;2057984;69;20871;-74
2022/12/29 07:00:44;;;;;;;14.93;5.90;;;;;;;1.52;64.66;92852.44;2057370;69;20260;-75
2022/12/29 07:03:10;;;;;;;30.10;11.10;;;;;;;1.65;65.54;92848.78;2058199;69;20129;-76
2022/12/29 07:05:36;;;;;;;40.63;16.05;;;;;;;1.71;65.68;92857.69;2056904;69;20259;-75
2022/12/29 07:08:02;;;;;;;32.10;13.57;;;;;;;1.74;66.16;92856.59;2057517;69;20177;-75
2022/12/29 07:10:28;;;;;;;22.75;9.63;;;;;;;1.72;66.87;92859.91;2058207;69;20154;-74
2022/12/29 07:12:55;;;;;;;11.07;6.07;;;;;;;1.70;66.52;92870.84;2058574;69;20146;-75
2022/12/29 07:15:20;;;;;;;7.55;4.20;;;;;;;1.72;65.57;92864.72;2058815;69;20181;-74
2022/12/29 07:17:49;;;;;;;9.23;5.93;;;;;;;1.72;64.11;92870.28;2060847;69;20189;-74
2022/12/29 07:20:16;;;;;;;10.07;6.15;;;;;;;1.85;64.38;92861.81;2063272;69;20145;-74
2022/12/29 07:22:42;;;;;;;8.98;4.75;;;;;;;1.78;64.31;92873.63;2061593;69;20156;-74
2022/12/29 07:25:08;;;;;;;10.23;4.90;;;;;;;1.78;64.39;92856.97;2058510;69;20176;-74
2022/12/29 07:27:33;;;;;;;7.05;3.78;;;;;;;1.70;64.65;92872.88;2057935;69;20228;-73
2022/12/29 07:29:59;;;;;;;6.55;3.83;;;;;;;2.11;64.00;92877.44;2057257;69;20577;-74
2022/12/29 07:32:24;;;;;;;7.93;4.00;;;;;;;2.23;64.20;92872.28;2058221;69;20182;-74
2022/12/29 07:34:50;;;;;;;7.22;3.50;;;;;;;2.05;64.99;92871.31;2057818;69;20221;-75
2022/12/29 07:37:18;;;;;;;5.85;2.72;;;;;;;2.23;64.55;92864.69;2053753;69;20248;-75
2022/12/29 07:39:43;;;;;;;5.88;3.30;;;;;;;2.42;66.79;92869.88;2055517;69;20162;-73
2022/12/29 07:42:10;;;;;;;5.00;3.00;;;;;;;2.64;67.18;92876.03;2056130;69;20169;-75
2022/12/29 07:44:41;;;;;;;4.97;3.10;;;;;;;2.37;64.17;92881.19;2054769;69;20637;-76
2022/12/29 07:47:32;;;;;;;5.47;2.90;;;;;;;2.66;62.76;92888.09;2054125;70;20206;-75
2022/12/29 07:49:57;;;;;;;7.57;3.28;;;;;;;2.64;62.46;92899.00;2056518;69;20153;-73
2022/12/29 07:52:23;;;;;;;5.47;2.60;;;;;;;2.89;63.41;92898.47;2057047;69;20142;-76
2022/12/29 07:54:49;;;;;;;7.05;3.00;;;;;;;2.94;62.99;92903.13;2057525;69;20142;-74
2022/12/29 07:57:14;;;;;;;5.90;3.42;;;;;;;2.94;61.61;92901.06;2056739;69;20142;-72
2022/12/29 07:59:40;;;;;;;5.60;3.28;;;;;;;2.94;61.04;92894.78;2056487;69;20153;-74
2022/12/29 08:02:06;;;;;;;6.30;3.60;;;;;;;2.80;60.63;92902.56;2056646;69;20137;-74
2022/12/29 08:04:33;;;;;;;7.05;3.78;;;;;;;3.05;59.95;92892.34;2056864;69;20156;-74
2022/12/29 08:06:59;;;;;;;5.90;3.45;;;;;;;2.79;59.55;92898.28;2056292;69;20181;-75
2022/12/29 08:09:25;;;;;;;9.93;4.38;;;;;;;2.93;60.17;92890.47;2057409;69;20138;-74
2022/12/29 08:11:51;;;;;;;7.47;3.90;;;;;;;3.29;59.97;92895.84;2057414;69;20157;-74
2022/12/29 08:14:16;;;;;;;7.80;3.80;;;;;;;3.50;60.33;92898.41;2056474;69;20149;-75
2022/12/29 08:16:42;;;;;;;8.65;4.50;;;;;;;3.18;59.17;92887.88;2056521;69;20169;-73
2022/12/29 08:19:11;;;;;;;7.13;4.07;;;;;;;3.46;59.38;92887.63;2054408;69;20733;-78
2022/12/29 08:21:37;;;;;;;8.13;3.60;;;;;;;3.68;59.65;92886.09;2054447;69;20226;-78
2022/12/29 08:24:02;;;;;;;7.78;3.72;;;;;;;3.77;60.19;92891.09;2056425;69;20192;-76
2022/12/29 08:26:28;;;;;;;6.32;3.88;;;;;;;3.57;59.14;92886.50;2057764;69;20150;-75
2022/12/29 08:28:55;;;;;;;5.65;3.38;;;;;;;3.40;59.17;92881.53;2055869;69;20145;-76
2022/12/29 08:31:21;;;;;;;5.72;3.47;;;;;;;3.67;57.19;92886.66;2054505;69;20178;-75
2022/12/29 08:33:47;;;;;;;3.88;2.50;;;;;;;3.77;57.36;92877.16;2055378;69;20249;-73
2022/12/29 08:36:13;;;;;;;4.97;3.10;;;;;;;4.03;57.51;92877.97;2055052;69;20533;-73
2022/12/29 08:38:39;;;;;;;4.65;2.63;;;;;;;4.02;57.19;92871.66;2055512;69;20149;-75
2022/12/29 08:41:04;;;;;;;4.53;2.88;;;;;;;4.26;58.30;92872.28;2055195;69;20142;-74
2022/12/29 08:43:30;;;;;;;7.15;3.80;;;;;;;4.14;55.86;92888.72;2055719;69;20271;-75
2022/12/29 08:45:59;;;;;;;8.20;4.38;;;;;;;3.99;56.10;92872.81;2055861;69;20157;-73
2022/12/29 08:48:26;;;;;;;9.85;5.18;;;;;;;4.11;56.90;92872.38;2055998;69;20157;-76
2022/12/29 08:50:53;;;;;;;11.68;5.63;;;;;;;4.22;58.25;92875.47;2056038;69;20705;-73
2022/12/29 08:53:19;;;;;;;10.18;5.25;;;;;;;4.27;57.07;92884.94;2055680;69;20186;-78
2022/12/29 08:55:46;;;;;;;9.18;4.85;;;;;;;4.41;55.76;92882.63;2055660;69;20208;-80
2022/12/29 08:58:14;;;;;;;7.15;4.50;;;;;;;4.36;56.40;92873.16;2056594;69;20169;-74
2022/12/29 09:00:42;;;;;;;9.18;4.35;;;;;;;4.33;56.14;92875.03;2053676;69;20177;-75
2022/12/29 09:03:09;;;;;;;7.90;4.32;;;;;;;4.33;56.04;92888.97;2055394;69;20572;-77
2022/12/29 09:05:35;;;;;;;6.68;4.10;;;;;;;4.34;56.11;92879.28;2054246;69;20583;-77
2022/12/29 09:08:01;;;;;;;7.18;4.03;;;;;;;4.32;55.68;92873.56;2055611;69;20514;-77
2022/12/29 09:10:28;;;;;;;5.85;3.72;;;;;;;4.58;55.47;92874.31;2055426;69;20193;-73
2022/12/29 09:12:53;;;;;;;7.35;3.70;;;;;;;4.91;55.42;92872.22;2055052;69;20182;-75
2022/12/29 09:15:20;;;;;;;5.38;3.60;;;;;;;5.06;55.55;92866.53;2055916;69;20155;-75
2022/12/29 09:17:46;;;;;;;5.72;3.53;;;;;;;4.79;54.13;92858.00;2056151;69;20158;-75
2022/12/29 09:20:14;;;;;;;6.35;3.53;;;;;;;5.03;55.91;92852.97;2055292;69;20491;-73
2022/12/29 09:22:41;;;;;;;7.22;3.60;;;;;;;5.21;55.49;92865.63;2054972;69;20158;-73
2022/12/29 09:25:10;;;;;;;5.15;3.25;;;;;;;5.32;56.04;92862.38;2056343;69;20168;-73
2022/12/29 09:27:37;;;;;;;8.38;5.18;;;;;;;5.13;56.38;92861.44;2056494;69;20553;-75
2022/12/29 09:30:07;;;;;;;10.52;6.57;;;;;;;5.13;57.57;92864.97;2056930;69;20253;-73
2022/12/29 09:32:33;;;;;;;10.52;6.35;;;;;;;5.32;57.83;92862.38;2055713;69;20204;-74
2022/12/29 09:34:59;;;;;;;11.45;5.50;;;;;;;5.50;57.92;92868.00;2056376;69;20204;-73
2022/12/29 09:37:25;;;;;;;9.05;5.20;;;;;;;5.64;58.04;92876.78;2056749;69;20538;-73
2022/12/29 09:39:51;;;;;;;9.40;5.32;;;;;;;5.67;57.00;92870.03;2056613;69;20138;-75
2022/12/29 09:42:35;;;;;;;8.75;5.28;;;;;;;5.76;57.29;92861.00;2054169;69;20150;-73
2022/12/29 09:45:20;;;;;;;9.40;4.55;;;;;;;5.89;57.30;92862.72;2054967;69;20237;-74
2022/12/29 09:47:47;;;;;;;11.30;4.97;;;;;;;6.24;56.86;92863.44;2054053;69;20699;-74
2022/12/29 09:50:28;;;;;;;9.40;4.55;;;;;;;7.24;60.54;92865.47;2055172;69;20174;-76
2022/12/29 09:53:18;;;;;;;8.00;4.63;;;;;;;7.62;58.01;92862.03;2055149;69;20158;-74
2022/12/29 09:55:52;;;;;;;10.10;5.25;;;;;;;7.56;53.77;92856.72;2055167;69;20249;-73
2022/12/29 09:58:25;;;;;;;13.60;7.63;;;;;;;8.01;54.14;92856.44;2055849;69;20578;-73
2022/12/29 10:01:14;;;;;;;11.90;6.90;;;;;;;8.47;53.84;92850.63;2057752;69;20573;-73
2022/12/29 10:03:53;;;;;;;21.60;12.00;;;;;;;8.73;52.75;92851.03;2057876;69;20149;-73
2022/12/29 10:06:44;;;;;;;18.38;12.88;;;;;;;8.02;52.29;92846.72;2054508;69;20223;-74
2022/12/29 10:09:53;;;;;;;16.58;8.43;;;;;;;8.55;52.86;92837.19;2057051;69;20241;-73
2022/12/29 10:13:13;;;;;;;16.55;9.07;;;;;;;9.50;49.45;92831.00;2055303;69;20162;-74
2022/12/29 10:15:56;;;;;;;12.88;6.82;;;;;;;9.79;48.44;92836.41;2050275;70;20208;-76
2022/12/29 10:18:58;;;;;;;10.82;5.60;;;;;;;9.26;46.14;92837.81;2055186;69;20187;-74
2022/12/29 10:21:43;;;;;;;9.10;4.97;;;;;;;9.31;44.94;92840.28;2056895;69;20181;-75
2022/12/29 10:24:12;;;;;;;13.93;5.80;;;;;;;9.85;45.66;92836.84;2057291;69;20150;-74
2022/12/29 10:26:41;;;;;;;9.80;5.75;;;;;;;10.29;45.38;92843.16;2057580;69;20231;-75
2022/12/29 10:29:20;;;;;;;11.30;6.38;;;;;;;10.78;45.50;92841.31;2054944;69;20229;-74
2022/12/29 10:31:56;;;;;;;14.00;7.13;;;;;;;10.75;45.36;92848.16;2054075;70;20149;-74
2022/12/29 10:34:28;;;;;;;12.30;6.47;;;;;;;10.04;45.09;92840.84;2054642;69;20142;-75
2022/12/29 10:37:35;;;;;;;12.48;7.47;;;;;;;9.36;45.41;92832.88;2055796;69;20181;-74
2022/12/29 10:40:14;;;;;;;13.40;8.55;;;;;;;10.45;45.55;92832.22;2054016;69;20169;-75
2022/12/29 10:42:45;;;;;;;12.93;8.07;;;;;;;11.62;44.88;92820.97;2056822;69;20157;-73
2022/12/29 10:45:17;;;;;;;14.73;6.35;;;;;;;11.38;42.98;92820.28;2057550;69;20169;-74
2022/12/29 10:48:03;;;;;;;14.35;5.95;;;;;;;10.72;43.67;92815.63;2054672;69;20207;-73
2022/12/29 10:50:32;;;;;;;9.88;6.20;;;;;;;10.43;45.14;92813.81;2055793;69;20169;-73
2022/12/29 10:53:04;;;;;;;15.30;7.57;;;;;;;9.86;45.09;92815.06;2057839;69;20154;-73
2022/12/29 10:55:41;;;;;;;11.02;6.65;;;;;;;10.08;45.63;92807.31;2057750;69;20146;-73
2022/12/29 10:58:13;;;;;;;16.50;7.20;;;;;;;10.12;45.16;92808.31;2057257;69;20172;-73
2022/12/29 11:00:39;;;;;;;11.80;6.28;;;;;;;9.83;45.25;92821.88;2056953;69;20158;-75
2022/12/29 11:03:14;;;;;;;15.13;8.35;;;;;;;9.69;45.73;92818.88;2057881;69;20191;-75
2022/12/29 11:05:57;;;;;;;16.33;6.85;;;;;;;9.97;45.80;92816.44;2057915;69;20145;-73
2022/12/29 11:08:33;;;;;;;14.38;6.90;;;;;;;9.79;44.39;92810.38;2054657;69;20171;-75
2022/12/29 11:11:08;;;;;;;14.77;6.97;;;;;;;9.65;45.95;92805.28;2055986;69;20156;-75
2022/12/29 11:13:56;;;;;;;11.43;7.43;;;;;;;9.57;46.96;92815.25;2055245;69;20614;-75
2022/12/29 11:16:33;;;;;;;10.75;7.47;;;;;;;9.53;46.34;92806.56;2057606;69;20610;-74
2022/12/29 11:19:01;;;;;;;13.13;7.97;;;;;;;9.74;46.79;92812.19;2057825;69;20157;-74
2022/12/29 11:21:41;;;;;;;14.90;8.40;;;;;;;9.45;46.50;92806.03;2057625;69;20173;-77
2022/12/29 11:24:22;;;;;;;14.32;8.50;;;;;;;9.35;46.48;92814.53;2055795;69;20154;-74
2022/12/29 11:27:08;;;;;;;19.83;9.85;;;;;;;9.33;47.37;92814.38;2054502;69;20146;-75
2022/12/29 11:29:39;;;;;;;19.85;9.85;;;;;;;9.37;46.84;92797.81;2054360;69;20253;-74
2022/12/29 11:32:17;;;;;;;18.15;10.18;;;;;;;9.56;46.13;92796.94;2056064;69;20145;-74
2022/12/29 11:34:42;;;;;;;18.40;8.95;;;;;;;9.72;45.49;92794.47;2057385;69;20296;-74
2022/12/29 11:37:23;;;;;;;15.07;8.52;;;;;;;9.82;46.42;92789.50;2056611;69;20580;-76
2022/12/29 11:39:56;;;;;;;17.73;8.68;;;;;;;9.40;46.38;92791.72;2054389;69;20184;-76
2022/12/29 11:42:52;;;;;;;19.48;9.20;;;;;;;9.08;47.04;92786.75;2053798;69;20174;-76
2022/12/29 11:45:21;;;;;;;15.25;8.65;;;;;;;9.39;46.61;92783.88;2053134;69;20668;-74
2022/12/29 11:48:01;;;;;;;18.42;10.00;;;;;;;9.59;47.00;92782.41;2054020;69;20241;-74
2022/12/29 11:50:31;;;;;;;20.52;10.75;;;;;;;9.63;46.64;92765.81;2056006;69;20581;-74
2022/12/29 11:53:19;;;;;;;23.67;10.90;;;;;;;9.15;46.81;92754.91;2057740;69;20185;-75
2022/12/29 11:56:16;;;;;;;16.80;9.88;;;;;;;9.17;48.19;92757.88;2055892;69;20185;-73
2022/12/29 11:58:42;;;;;;;25.27;10.55;;;;;;;8.91;48.72;92754.03;2053340;69;20522;-75
2022/12/29 12:01:23;;;;;;;17.88;10.32;;;;;;;8.90;47.01;92758.91;2054559;69;20146;-75
2022/12/29 12:04:01;;;;;;;19.55;10.35;;;;;;;8.73;46.79;92756.31;2055842;69;20170;-76
2022/12/29 12:06:28;;;;;;;20.67;9.68;;;;;;;8.74;48.48;92752.19;2056021;69;20221;-75
2022/12/29 12:08:57;;;;;;;22.02;11.70;;;;;;;8.82;49.92;92755.53;2054306;69;20181;-74
2022/12/29 12:11:36;;;;;;;27.02;10.88;;;;;;;8.78;51.27;92748.91;2054338;69;20228;-74
2022/12/29 12:14:18;;;;;;;24.10;11.57;;;;;;;8.33;52.19;92746.56;2053839;69;20249;-73
2022/12/29 12:17:31;;;;;;;26.10;13.18;;;;;;;8.54;52.80;92731.16;2046534;70;20286;-74
2022/12/29 12:20:05;;;;;;;26.85;13.93;;;;;;;8.61;52.28;92722.56;2052734;69;20264;-76
2022/12/29 12:22:37;;;;;;;52.95;25.27;;;;;;;8.42;52.03;92722.63;2055683;69;20202;-76
2022/12/29 12:25:16;;;;;;;34.92;16.70;;;;;;;8.47;51.77;92732.81;2055685;69;20174;-75
2022/12/29 12:28:00;;;;;;;29.83;14.25;;;;;;;8.14;52.72;92722.13;2060177;69;20231;-77
2022/12/29 12:30:30;;;;;;;19.58;11.00;;;;;;;8.23;54.92;92726.22;2060811;69;20146;-76
2022/12/29 12:33:04;;;;;;;13.07;8.77;;;;;;;7.76;53.38;92719.41;2059531;69;20143;-78
2022/12/29 12:36:08;;;;;;;22.15;9.13;;;;;;;7.84;54.62;92726.34;2062919;69;20215;-78